createdAt,value
2023-07-20T00:00:00.124Z,3.47
2023-07-20T00:02:28.375Z,4.03
2023-07-20T00:04:56.525Z,4.10
2023-07-20T00:07:26.192Z,3.63
2023-07-20T00:09:54.327Z,3.37
2023-07-20T00:12:23.404Z,3.50
2023-07-20T00:14:54.640Z,3.60
2023-07-20T00:17:24.132Z,3.40
2023-07-20T00:19:52.142Z,3.50
2023-07-20T00:22:20.198Z,3.43
2023-07-20T00:24:48.286Z,3.57
2023-07-20T00:27:16.313Z,3.80
2023-07-20T00:29:44.404Z,3.87
2023-07-20T00:32:12.476Z,3.13
2023-07-20T00:34:42.028Z,3.67
2023-07-20T00:37:10.010Z,3.60
2023-07-20T00:39:38.156Z,3.23
2023-07-20T00:42:07.028Z,3.57
2023-07-20T00:44:36.075Z,3.20
2023-07-20T00:47:04.187Z,3.40
2023-07-20T00:49:32.383Z,3.67
2023-07-20T00:52:03.209Z,3.30
2023-07-20T00:54:31.973Z,3.93
2023-07-20T00:57:00.961Z,4.00
2023-07-20T00:59:29.572Z,3.80
2023-07-20T01:01:57.630Z,3.57
2023-07-20T01:04:27.914Z,3.73
2023-07-20T01:07:00.548Z,3.47
2023-07-20T01:09:36.260Z,3.53
2023-07-20T01:12:09.719Z,3.73
2023-07-20T01:14:37.794Z,4.07
2023-07-20T01:17:06.546Z,3.67
2023-07-20T01:19:34.662Z,3.30
2023-07-20T01:22:11.456Z,3.63
2023-07-20T01:25:03.962Z,4.37
2023-07-20T01:27:52.047Z,3.80
2023-07-20T01:30:49.764Z,3.73
2023-07-20T01:33:20.562Z,3.53
2023-07-20T01:35:52.685Z,3.93
2023-07-20T01:38:22.277Z,4.20
2023-07-20T01:40:51.433Z,3.60
2023-07-20T01:43:20.143Z,4.10
2023-07-20T01:45:48.327Z,3.90
2023-07-20T01:48:16.508Z,3.90
2023-07-20T01:50:46.279Z,3.70
2023-07-20T01:53:14.401Z,4.13
2023-07-20T01:55:42.471Z,3.60
2023-07-20T01:58:10.656Z,3.90
2023-07-20T02:00:40.189Z,3.67
2023-07-20T02:03:08.780Z,3.80
2023-07-20T02:05:37.020Z,4.00
2023-07-20T02:08:07.305Z,3.90
2023-07-20T02:10:35.278Z,3.50
2023-07-20T02:13:03.283Z,3.80
2023-07-20T02:15:31.289Z,3.70
2023-07-20T02:17:59.413Z,3.80
2023-07-20T02:20:28.701Z,3.67
2023-07-20T02:22:57.050Z,4.07
2023-07-20T02:25:26.537Z,3.60
2023-07-20T02:27:54.580Z,3.50
2023-07-20T02:30:22.641Z,3.63
2023-07-20T02:32:50.763Z,3.80
2023-07-20T02:35:18.965Z,3.67
2023-07-20T02:37:47.170Z,3.70
2023-07-20T02:40:15.270Z,3.37
2023-07-20T02:42:44.634Z,3.57
2023-07-20T02:45:12.742Z,3.97
2023-07-20T02:47:40.812Z,3.80
2023-07-20T02:50:10.826Z,3.70
2023-07-20T02:52:39.138Z,4.00
2023-07-20T02:55:07.677Z,3.70
2023-07-20T02:57:35.744Z,3.80
2023-07-20T03:00:06.991Z,4.47
2023-07-20T03:02:35.236Z,4.00
2023-07-20T03:05:07.065Z,4.53
2023-07-20T03:07:35.141Z,4.10
2023-07-20T03:10:04.186Z,4.40
2023-07-20T03:12:32.241Z,3.97
2023-07-20T03:15:00.293Z,3.93
2023-07-20T03:17:29.929Z,4.20
2023-07-20T03:19:58.023Z,4.40
2023-07-20T03:22:26.391Z,4.13
2023-07-20T03:24:54.626Z,4.10
2023-07-20T03:27:22.739Z,4.73
2023-07-20T03:29:50.734Z,4.20
2023-07-20T03:32:18.801Z,4.67
2023-07-20T03:34:48.166Z,4.80
2023-07-20T03:37:16.431Z,4.73
2023-07-20T03:39:44.512Z,4.73
2023-07-20T03:42:12.590Z,4.67
2023-07-20T03:44:40.569Z,4.63
2023-07-20T03:47:09.034Z,5.30
2023-07-20T03:49:37.193Z,4.77
2023-07-20T03:52:07.291Z,4.40
2023-07-20T03:54:35.449Z,4.83
2023-07-20T03:57:03.504Z,4.20
2023-07-20T03:59:31.516Z,4.33
2023-07-20T04:01:59.585Z,4.33
2023-07-20T04:04:28.161Z,5.00
2023-07-20T04:06:56.227Z,4.07
2023-07-20T04:09:25.730Z,4.27
2023-07-20T04:11:53.787Z,4.30
2023-07-20T04:14:21.785Z,4.23
2023-07-20T04:16:49.904Z,3.67
2023-07-20T04:19:19.107Z,4.20
2023-07-20T04:21:47.157Z,4.20
2023-07-20T04:24:15.340Z,4.07
2023-07-20T04:26:44.811Z,4.13
2023-07-20T04:29:12.802Z,3.67
2023-07-20T04:31:40.809Z,3.33
2023-07-20T04:34:08.838Z,3.97
2023-07-20T04:36:36.806Z,3.80
2023-07-20T04:39:08.062Z,3.43
2023-07-20T04:41:44.387Z,3.60
2023-07-20T04:44:12.558Z,3.77
2023-07-20T04:46:41.192Z,3.80
2023-07-20T04:49:09.384Z,3.50
2023-07-20T04:51:37.498Z,3.53
2023-07-20T04:54:05.738Z,3.73
2023-07-20T04:56:34.357Z,3.30
2023-07-20T04:59:03.817Z,4.10
2023-07-20T05:01:31.922Z,3.10
2023-07-20T05:03:59.965Z,3.70
2023-07-20T05:06:28.170Z,3.73
2023-07-20T05:08:56.145Z,3.80
2023-07-20T05:11:24.268Z,3.63
2023-07-20T05:13:52.469Z,3.80
2023-07-20T05:16:22.262Z,3.33
2023-07-20T05:18:50.544Z,3.67
2023-07-20T05:21:18.568Z,3.90
2023-07-20T05:23:47.066Z,3.30
2023-07-20T05:26:15.183Z,3.00
2023-07-20T05:28:43.190Z,2.63
2023-07-20T05:31:11.289Z,2.87
2023-07-20T05:33:40.734Z,2.87
2023-07-20T05:36:09.007Z,2.70
2023-07-20T05:38:37.087Z,2.70
2023-07-20T05:41:05.165Z,2.87
2023-07-20T05:43:33.536Z,2.20
2023-07-20T05:46:01.602Z,2.53
2023-07-20T05:48:29.669Z,2.40
2023-07-20T05:50:58.974Z,2.50
2023-07-20T05:53:27.089Z,2.50
2023-07-20T05:55:55.756Z,2.50
2023-07-20T05:58:24.579Z,2.47
2023-07-20T06:00:53.070Z,2.13
2023-07-20T06:03:22.654Z,2.30
2023-07-20T06:05:50.714Z,2.10
2023-07-20T06:08:20.218Z,2.20
2023-07-20T06:10:53.442Z,2.20
2023-07-20T06:13:21.502Z,2.07
2023-07-20T06:15:49.576Z,1.70
2023-07-20T06:18:17.784Z,1.70
2023-07-20T06:20:51.102Z,1.90
2023-07-20T06:23:20.735Z,2.00
2023-07-20T06:25:48.911Z,2.13
2023-07-20T06:28:16.978Z,2.00
2023-07-20T06:30:45.059Z,1.80
2023-07-20T06:33:13.162Z,2.00
2023-07-20T06:35:44.097Z,2.23
2023-07-20T06:40:47.986Z,2.10
2023-07-20T06:45:47.267Z,2.27
2023-07-20T06:48:15.299Z,2.17
2023-07-20T06:50:44.909Z,1.97
2023-07-20T06:53:12.922Z,2.33
2023-07-20T06:55:42.459Z,2.13
2023-07-20T06:58:12.645Z,2.43
2023-07-20T07:00:40.777Z,1.87
2023-07-20T07:03:08.930Z,1.57
2023-07-20T07:05:39.427Z,1.67
2023-07-20T07:08:07.863Z,1.60
2023-07-20T07:10:37.938Z,1.70
2023-07-20T07:13:06.378Z,1.60
2023-07-20T07:15:36.903Z,1.70
2023-07-20T07:18:05.550Z,1.50
2023-07-20T07:20:33.670Z,1.33
2023-07-20T07:23:01.754Z,1.70
2023-07-20T07:25:29.867Z,1.30
2023-07-20T07:27:58.094Z,1.77
2023-07-20T07:30:26.173Z,1.77
2023-07-20T07:32:55.670Z,1.67
2023-07-20T07:35:23.856Z,1.70
2023-07-20T07:38:05.019Z,1.33
2023-07-20T07:40:35.050Z,1.33
2023-07-20T07:43:03.189Z,1.20
2023-07-20T07:45:31.489Z,1.05
2023-07-20T07:48:01.045Z,1.27
2023-07-20T07:50:29.811Z,1.20
2023-07-20T07:52:58.157Z,1.30
2023-07-20T07:55:27.706Z,1.50
2023-07-20T07:57:55.758Z,1.60
2023-07-20T08:00:24.193Z,1.35
2023-07-20T08:02:53.475Z,1.48
2023-07-20T08:05:23.307Z,1.33
2023-07-20T08:07:51.291Z,1.30
2023-07-20T08:10:19.316Z,1.40
2023-07-20T08:12:47.277Z,1.38
2023-07-20T08:15:15.983Z,1.38
2023-07-20T08:17:44.926Z,1.70
2023-07-20T08:20:15.262Z,1.45
2023-07-20T08:22:45.809Z,1.35
2023-07-20T08:25:15.819Z,1.40
2023-07-20T08:27:43.872Z,1.30
2023-07-20T08:30:12.829Z,1.20
2023-07-20T08:32:41.759Z,1.42
2023-07-20T08:35:10.717Z,1.15
2023-07-20T08:37:38.795Z,1.45
2023-07-20T08:40:10.404Z,1.50
2023-07-20T08:42:39.381Z,1.40
2023-07-20T08:45:10.305Z,1.45
2023-07-20T08:47:38.596Z,1.60
2023-07-20T08:50:11.655Z,1.25
2023-07-20T08:52:39.778Z,1.30
2023-07-20T08:55:10.728Z,1.35
2023-07-20T08:57:40.777Z,1.20
2023-07-20T09:00:13.963Z,1.60
2023-07-20T09:02:44.373Z,1.30
2023-07-20T09:05:14.366Z,1.50
2023-07-20T09:07:42.852Z,1.30
2023-07-20T09:10:14.459Z,1.17
2023-07-20T09:12:44.406Z,1.35
2023-07-20T09:15:13.805Z,1.20
2023-07-20T09:17:41.838Z,1.23
2023-07-20T09:20:12.203Z,1.10
2023-07-20T09:22:41.727Z,1.30
2023-07-20T09:25:14.152Z,1.10
2023-07-20T09:27:44.049Z,1.25
2023-07-20T09:30:18.200Z,1.10
2023-07-20T09:38:23.741Z,1.10
2023-07-20T09:50:55.102Z,1.23
2023-07-20T09:53:23.281Z,1.27
2023-07-20T09:55:54.038Z,1.15
2023-07-20T09:58:22.411Z,1.15
2023-07-20T10:00:54.678Z,1.02
2023-07-20T10:03:24.646Z,1.13
2023-07-20T10:06:08.287Z,1.38
2023-07-20T10:11:17.407Z,1.05
2023-07-20T10:13:48.939Z,0.90
2023-07-20T10:16:21.821Z,1.00
2023-07-20T10:18:57.645Z,1.13
2023-07-20T10:23:58.794Z,0.95
2023-07-20T10:26:28.793Z,1.05
2023-07-20T10:28:57.947Z,1.90
2023-07-20T10:31:30.173Z,1.33
2023-07-20T10:33:59.916Z,1.13
2023-07-20T10:36:31.896Z,0.90
2023-07-20T10:39:02.126Z,1.10
2023-07-20T10:41:35.906Z,1.20
2023-07-20T10:44:05.305Z,0.95
2023-07-20T10:46:44.008Z,1.08
2023-07-20T10:49:13.580Z,1.08
2023-07-20T10:51:42.719Z,1.20
2023-07-20T10:54:11.523Z,1.00
2023-07-20T10:56:41.114Z,1.05
2023-07-20T10:59:21.921Z,1.40
2023-07-20T11:01:51.345Z,1.08
2023-07-20T11:04:20.555Z,1.08
2023-07-20T11:06:57.858Z,1.17
2023-07-20T11:09:26.901Z,1.20
2023-07-20T11:12:11.989Z,1.10
2023-07-20T11:14:43.506Z,1.50
2023-07-20T11:17:15.769Z,1.10
2023-07-20T11:22:15.068Z,1.30
2023-07-20T11:24:43.708Z,1.40
2023-07-20T11:27:13.154Z,1.00
2023-07-20T11:29:41.181Z,1.00
2023-07-20T11:32:10.161Z,0.93
2023-07-20T11:34:38.248Z,1.08
2023-07-20T11:39:39.751Z,0.10
2023-07-20T11:42:08.624Z,0.15
2023-07-20T11:44:38.444Z,0.20
2023-07-20T11:47:09.154Z,0.20
2023-07-20T11:49:38.675Z,0.20
2023-07-20T11:52:08.828Z,0.20
2023-07-20T11:54:37.662Z,0.20
2023-07-20T11:57:07.021Z,0.20
2023-07-20T11:59:35.359Z,0.30
2023-07-20T12:02:05.544Z,0.30
2023-07-20T12:04:34.447Z,0.30
2023-07-20T12:07:02.785Z,0.30
2023-07-20T12:09:46.157Z,0.20
2023-07-20T12:12:20.851Z,0.40
2023-07-20T12:14:48.908Z,0.30
2023-07-20T12:17:18.783Z,0.30
2023-07-20T12:19:47.242Z,0.30
2023-07-20T12:22:16.132Z,0.20
2023-07-20T12:24:44.406Z,0.20
2023-07-20T12:27:19.380Z,0.30
2023-07-20T12:29:47.519Z,0.20
2023-07-20T12:32:15.492Z,0.20
2023-07-20T12:34:44.835Z,0.20
2023-07-20T12:37:13.233Z,0.20
2023-07-20T12:39:42.376Z,0.20
2023-07-20T12:42:10.483Z,0.25
2023-07-20T12:44:38.515Z,0.30
2023-07-20T12:47:07.000Z,0.20
2023-07-20T12:49:35.042Z,0.20
2023-07-20T12:52:04.509Z,0.20
2023-07-20T12:54:32.530Z,0.30
2023-07-20T12:59:31.533Z,0.20
2023-07-20T13:01:59.584Z,0.20
2023-07-20T13:04:27.576Z,0.10
2023-07-20T13:06:55.833Z,0.10
2023-07-20T13:09:25.213Z,0.10
2023-07-20T13:11:53.689Z,0.10
2023-07-20T13:14:21.709Z,0.10
2023-07-20T13:16:49.743Z,0.10
2023-07-20T13:19:17.735Z,0.10
2023-07-20T13:21:45.852Z,0.10
2023-07-20T13:24:13.909Z,0.10
2023-07-20T13:26:45.248Z,0.05
2023-07-20T13:29:14.081Z,0.00
2023-07-20T13:31:42.492Z,0.10
2023-07-20T13:34:10.970Z,0.10
2023-07-20T13:36:39.292Z,0.05
2023-07-20T13:39:07.359Z,0.00
2023-07-20T13:41:35.906Z,0.10
2023-07-20T13:44:06.913Z,0.10
2023-07-20T13:49:12.954Z,0.10
2023-07-20T13:51:42.405Z,0.00
2023-07-20T13:56:42.726Z,0.00
2023-07-20T13:59:15.118Z,0.00
2023-07-20T14:01:43.371Z,0.60
2023-07-20T14:04:11.776Z,0.80
2023-07-20T14:06:40.635Z,0.80
2023-07-20T14:09:08.993Z,0.80
2023-07-20T14:14:08.307Z,0.90
2023-07-20T14:16:37.863Z,0.93
2023-07-20T14:19:06.918Z,0.93
2023-07-20T14:21:35.006Z,1.08
2023-07-20T14:24:03.422Z,0.70
2023-07-20T14:26:33.669Z,0.82
2023-07-20T14:29:02.972Z,0.70
2023-07-20T14:31:32.690Z,0.80
2023-07-20T14:34:02.304Z,0.80
2023-07-20T14:36:31.531Z,0.88
2023-07-20T14:39:02.360Z,0.60
2023-07-20T14:41:30.518Z,1.00
2023-07-20T14:43:58.683Z,0.85
2023-07-20T14:46:27.449Z,0.68
2023-07-20T14:48:55.629Z,0.55
2023-07-20T14:51:25.338Z,0.40
2023-07-20T14:53:53.363Z,0.70
2023-07-20T14:56:21.581Z,0.70
2023-07-20T14:58:49.744Z,0.93
2023-07-20T15:01:17.818Z,0.60
2023-07-20T15:03:45.908Z,0.80
2023-07-20T15:06:13.997Z,0.82
2023-07-20T15:08:43.432Z,1.00
2023-07-20T15:11:11.418Z,0.70
2023-07-20T15:13:39.512Z,1.05
2023-07-20T15:16:07.594Z,1.02
2023-07-20T15:18:47.282Z,0.80
2023-07-20T15:21:16.424Z,0.77
2023-07-20T15:23:46.186Z,0.70
2023-07-20T15:26:14.495Z,0.75
2023-07-20T15:28:42.521Z,0.70
2023-07-20T15:31:10.569Z,0.80
2023-07-20T15:33:38.662Z,0.70
2023-07-20T15:36:08.305Z,0.95
2023-07-20T15:38:36.301Z,0.90
2023-07-20T15:41:05.712Z,0.80
2023-07-20T15:43:33.842Z,0.80
2023-07-20T15:46:34.499Z,0.80
2023-07-20T15:49:04.608Z,1.00
2023-07-20T15:51:32.783Z,0.50
2023-07-20T15:54:00.959Z,0.93
2023-07-20T15:56:30.332Z,0.80
2023-07-20T16:01:27.858Z,0.90
2023-07-20T16:03:57.300Z,0.80
2023-07-20T16:06:25.353Z,0.80
2023-07-20T16:08:53.690Z,1.05
2023-07-20T16:11:23.608Z,0.80
2023-07-20T16:13:55.480Z,0.55
2023-07-20T16:16:23.809Z,0.90
2023-07-20T16:18:52.665Z,0.73
2023-07-20T16:21:20.741Z,0.85
2023-07-20T16:23:49.004Z,1.08
2023-07-20T16:26:17.073Z,0.50
2023-07-20T16:28:46.606Z,0.65
2023-07-20T16:31:17.945Z,0.60
2023-07-20T16:33:47.697Z,0.68
2023-07-20T16:36:17.622Z,0.60
2023-07-20T16:38:46.132Z,0.73
2023-07-20T16:41:14.901Z,0.57
2023-07-20T16:51:17.300Z,0.52
2023-07-20T16:53:45.544Z,0.73
2023-07-20T16:56:14.326Z,0.57
2023-07-20T16:58:42.401Z,0.90
2023-07-20T17:01:10.465Z,0.50
2023-07-20T17:03:40.249Z,0.75
2023-07-20T17:06:08.870Z,0.70
2023-07-20T17:08:37.112Z,0.90
2023-07-20T17:11:05.380Z,0.80
2023-07-20T17:13:34.073Z,0.63
2023-07-20T17:16:02.984Z,0.80
2023-07-20T17:18:31.163Z,1.02
2023-07-20T17:21:00.680Z,0.57
2023-07-20T17:31:04.550Z,0.60
2023-07-20T17:33:32.648Z,0.73
2023-07-20T17:41:05.549Z,0.63
2023-07-20T17:43:33.817Z,0.75
2023-07-20T17:48:32.859Z,0.88
2023-07-20T17:51:03.218Z,0.90
2023-07-20T17:53:31.266Z,0.90
2023-07-20T17:55:59.312Z,0.98
2023-07-20T17:58:27.371Z,1.10
2023-07-20T18:00:55.508Z,0.80
2023-07-20T18:03:23.723Z,0.93
2023-07-20T18:05:51.810Z,1.00
2023-07-20T18:08:21.274Z,1.00
2023-07-20T18:10:49.307Z,0.98
2023-07-20T18:13:17.432Z,1.02
2023-07-20T18:15:45.441Z,1.25
2023-07-20T18:18:13.557Z,1.10
2023-07-20T18:20:41.639Z,1.00
2023-07-20T18:23:09.685Z,0.85
2023-07-20T18:25:39.207Z,1.00
2023-07-20T18:28:07.481Z,0.90
2023-07-20T18:30:35.984Z,0.90
2023-07-20T18:33:05.124Z,1.00
2023-07-20T18:35:35.423Z,0.75
2023-07-20T18:38:03.711Z,0.80
2023-07-20T18:40:31.932Z,0.90
2023-07-20T18:43:01.410Z,0.98
2023-07-20T18:45:31.899Z,1.02
2023-07-20T18:48:00.532Z,1.10
2023-07-20T18:50:30.200Z,1.08
2023-07-20T18:53:01.602Z,1.13
2023-07-20T18:55:30.735Z,1.02
2023-07-20T18:57:59.399Z,1.17
2023-07-20T19:00:29.016Z,1.27
2023-07-20T19:02:57.789Z,1.08
2023-07-20T19:05:26.553Z,1.10
2023-07-20T19:07:54.889Z,1.35
2023-07-20T19:10:23.019Z,1.45
2023-07-20T19:12:51.305Z,1.10
2023-07-20T19:15:19.498Z,1.20
2023-07-20T19:17:49.041Z,1.25
2023-07-20T19:20:17.287Z,0.82
2023-07-20T19:22:46.070Z,1.27
2023-07-20T19:25:14.381Z,1.20
2023-07-20T19:27:43.516Z,1.60
2023-07-20T19:30:12.685Z,1.33
2023-07-20T19:32:40.895Z,1.38
2023-07-20T19:35:11.359Z,1.50
2023-07-20T19:37:40.406Z,1.37
2023-07-20T19:40:10.197Z,1.97
2023-07-20T19:42:38.321Z,1.50
2023-07-20T19:45:07.248Z,1.63
2023-07-20T19:47:35.395Z,1.40
2023-07-20T19:50:04.693Z,1.40
2023-07-20T19:52:34.140Z,1.50
2023-07-20T19:55:03.802Z,1.73
2023-07-20T20:00:08.738Z,2.47
2023-07-20T20:05:11.005Z,2.77
2023-07-20T20:07:40.766Z,4.10
2023-07-20T20:10:09.968Z,4.50
2023-07-20T20:12:38.630Z,5.10
2023-07-20T20:15:07.927Z,5.23
2023-07-20T20:17:36.472Z,5.90
2023-07-20T20:20:05.603Z,6.20
2023-07-20T20:22:33.761Z,5.93
2023-07-20T20:25:03.981Z,6.83
2023-07-20T20:27:32.112Z,5.70
2023-07-20T20:30:01.388Z,6.53
2023-07-20T20:32:29.548Z,7.00
2023-07-20T20:34:58.671Z,7.60
2023-07-20T20:37:26.839Z,7.60
2023-07-20T20:39:54.843Z,7.30
2023-07-20T20:42:24.401Z,8.20
2023-07-20T20:44:52.492Z,6.67
2023-07-20T20:47:20.503Z,7.10
2023-07-20T20:49:49.492Z,6.40
2023-07-20T20:52:18.915Z,6.47
2023-07-20T20:54:48.067Z,6.03
2023-07-20T20:57:17.667Z,5.70
2023-07-20T20:59:48.823Z,5.70
2023-07-20T21:02:19.033Z,4.60
2023-07-20T21:04:49.115Z,4.53
2023-07-20T21:07:17.407Z,4.67
2023-07-20T21:09:46.367Z,4.80
2023-07-20T21:12:14.391Z,3.90
2023-07-20T21:14:42.791Z,3.70
2023-07-20T21:17:12.811Z,3.90
2023-07-20T21:19:40.911Z,4.00
2023-07-20T21:22:09.054Z,4.30
2023-07-20T21:24:37.461Z,4.07
2023-07-20T21:27:05.761Z,3.83
2023-07-20T21:29:34.812Z,3.73
2023-07-20T21:32:03.126Z,4.70
2023-07-20T21:34:32.977Z,5.10
2023-07-20T21:37:01.116Z,6.27
2023-07-20T21:39:29.217Z,5.77
2023-07-20T21:41:57.545Z,5.03
2023-07-20T21:44:26.210Z,5.57
2023-07-20T21:46:54.550Z,4.57
2023-07-20T21:49:22.958Z,4.27
2023-07-20T21:51:52.386Z,3.57
2023-07-20T21:54:20.390Z,4.23
2023-07-20T21:56:48.595Z,3.80
2023-07-20T21:59:16.772Z,3.70
2023-07-20T22:04:17.017Z,3.57
2023-07-20T22:06:47.123Z,4.00
2023-07-20T22:09:16.872Z,3.83
2023-07-20T22:11:44.923Z,3.93
2023-07-20T22:14:12.928Z,4.30
2023-07-20T22:16:42.055Z,3.83
2023-07-20T22:19:10.858Z,3.50
2023-07-20T22:21:40.115Z,3.20
2023-07-20T22:24:08.554Z,2.83
2023-07-20T22:26:38.105Z,2.90
2023-07-20T22:29:07.996Z,3.00
2023-07-20T22:31:36.240Z,3.33
2023-07-20T22:34:04.311Z,3.80
2023-07-20T22:36:32.941Z,3.23
2023-07-20T22:39:00.983Z,4.00
2023-07-20T22:41:29.258Z,3.87
2023-07-20T22:43:58.745Z,3.67
2023-07-20T22:46:26.988Z,3.50
2023-07-20T22:48:56.350Z,4.60
2023-07-20T22:51:24.442Z,4.03
2023-07-20T22:53:53.420Z,3.37
2023-07-20T22:56:21.478Z,3.37
2023-07-20T22:58:49.493Z,3.30
2023-07-20T23:01:18.856Z,8.00
2023-07-20T23:03:47.546Z,17.87
2023-07-20T23:06:15.964Z,11.30
2023-07-20T23:08:44.428Z,12.03
2023-07-20T23:11:13.212Z,11.80
2023-07-20T23:13:41.433Z,10.87
2023-07-20T23:16:09.565Z,11.67
2023-07-20T23:18:39.028Z,19.77
2023-07-20T23:21:08.478Z,12.60
2023-07-20T23:23:38.319Z,5.50
2023-07-20T23:26:07.394Z,7.30
2023-07-20T23:28:35.603Z,10.37
2023-07-20T23:31:03.735Z,12.33
2023-07-20T23:33:32.033Z,17.83
2023-07-20T23:36:09.158Z,20.33
2023-07-20T23:38:37.991Z,11.47
2023-07-20T23:41:07.853Z,9.23
2023-07-20T23:43:36.445Z,9.33
2023-07-20T23:46:05.492Z,7.93
2023-07-20T23:48:41.413Z,15.30
2023-07-20T23:51:14.747Z,14.53
2023-07-20T23:53:43.228Z,10.90
2023-07-20T23:56:11.226Z,12.13
2023-07-20T23:58:39.578Z,12.40
